Time;durP1;ratioP1;P1;durP2;ratioP2;P2;SDS_P1;SDS_P2;PMS_P1;PMS_P2;Temp;Humidity;BMP_temperature;BMP_pressure;BME280_temperature;BME280_humidity;BME280_pressure;Samples;Min_cycle;Max_cycle;Signal;HPM_P1;HPM_P2
2021/07/05 00:00:00;;;;;;;5.78;2.88;;;18.50;66.90;;;;;;5035943;28;20048;-70
2021/07/05 00:02:26;;;;;;;6.55;3.10;;;18.50;67.00;;;;;;5039694;28;20431;-70
2021/07/05 00:04:52;;;;;;;7.05;2.83;;;18.50;66.90;;;;;;5039237;28;20116;-70
2021/07/05 00:07:20;;;;;;;8.88;3.75;;;18.50;67.30;;;;;;5039592;28;20076;-70
2021/07/05 00:09:46;;;;;;;8.02;3.40;;;18.50;67.70;;;;;;5040927;28;20022;-70
2021/07/05 00:12:12;;;;;;;12.82;3.50;;;18.50;67.80;;;;;;5040830;28;20152;-70
2021/07/05 00:14:38;;;;;;;7.15;3.17;;;18.50;67.90;;;;;;5040423;28;20037;-70
2021/07/05 00:17:04;;;;;;;8.07;3.78;;;18.50;68.10;;;;;;5040514;28;20034;-70
2021/07/05 00:19:30;;;;;;;9.18;3.83;;;18.40;68.40;;;;;;5040140;28;20046;-69
2021/07/05 00:21:56;;;;;;;5.68;3.03;;;18.40;68.30;;;;;;5040537;28;20083;-70
2021/07/05 00:24:22;;;;;;;9.60;4.32;;;18.50;68.40;;;;;;5040689;28;20079;-70
2021/07/05 00:26:48;;;;;;;13.98;4.15;;;18.40;69.10;;;;;;5040546;28;20037;-70
2021/07/05 00:29:14;;;;;;;7.45;3.25;;;18.40;69.50;;;;;;5040201;28;20484;-70
2021/07/05 00:31:40;;;;;;;7.80;3.25;;;18.30;69.20;;;;;;5040482;28;20033;-70
2021/07/05 00:34:06;;;;;;;6.38;2.80;;;18.40;68.90;;;;;;5038047;28;20117;-70
2021/07/05 00:36:32;;;;;;;5.88;2.95;;;18.30;68.70;;;;;;5035857;28;20056;-70
2021/07/05 00:38:58;;;;;;;7.07;2.95;;;18.40;68.80;;;;;;5032024;28;20108;-70
2021/07/05 00:41:24;;;;;;;5.28;2.47;;;18.30;68.60;;;;;;5040032;28;20396;-70
2021/07/05 00:43:50;;;;;;;7.03;2.78;;;18.30;68.30;;;;;;5040744;28;20025;-70
2021/07/05 00:46:16;;;;;;;6.35;2.53;;;18.20;67.80;;;;;;5040253;28;20140;-70
2021/07/05 00:48:42;;;;;;;6.55;2.50;;;18.20;67.70;;;;;;5040426;28;20057;-70
2021/07/05 00:51:08;;;;;;;6.28;2.85;;;18.30;68.10;;;;;;5040190;28;20029;-69
2021/07/05 00:53:34;;;;;;;6.95;3.00;;;18.20;67.90;;;;;;5040109;28;20044;-70
2021/07/05 00:56:00;;;;;;;5.10;2.67;;;18.20;68.20;;;;;;5039450;28;20021;-70
2021/07/05 00:58:26;;;;;;;7.57;2.63;;;18.20;69.20;;;;;;5039814;28;20033;-70
2021/07/05 01:00:52;;;;;;;6.93;2.95;;;18.20;68.90;;;;;;5039746;28;20096;-70
2021/07/05 01:03:18;;;;;;;8.35;3.22;;;18.20;68.30;;;;;;5039543;28;20044;-70
2021/07/05 01:05:44;;;;;;;5.53;2.53;;;18.10;68.10;;;;;;5039966;28;20033;-70
2021/07/05 01:08:10;;;;;;;6.13;2.78;;;18.10;68.10;;;;;;5039632;28;20029;-70
2021/07/05 01:10:36;;;;;;;7.28;2.67;;;18.10;68.50;;;;;;5039864;28;20028;-70
2021/07/05 01:13:03;;;;;;;7.10;2.28;;;18.10;68.30;;;;;;5045559;28;20109;-72
2021/07/05 01:15:31;;;;;;;5.38;2.33;;;18.00;68.00;;;;;;5039713;28;20025;-70
2021/07/05 01:17:59;;;;;;;7.82;2.85;;;18.10;67.90;;;;;;5039090;28;20045;-70
2021/07/05 01:20:28;;;;;;;5.90;2.53;;;18.00;67.90;;;;;;5039293;28;20040;-70
2021/07/05 01:22:54;;;;;;;5.97;2.70;;;18.00;68.50;;;;;;5032547;28;20018;-70
2021/07/05 01:25:25;;;;;;;4.93;2.45;;;18.00;68.30;;;;;;5039242;28;20065;-70
2021/07/05 01:27:51;;;;;;;5.25;2.70;;;18.00;68.30;;;;;;5039119;28;20029;-71
2021/07/05 01:30:20;;;;;;;6.18;2.92;;;18.00;68.20;;;;;;5039519;28;20102;-68
2021/07/05 01:32:47;;;;;;;4.95;2.60;;;18.00;68.00;;;;;;5041897;28;20029;-70
2021/07/05 01:35:14;;;;;;;7.65;2.97;;;18.00;67.90;;;;;;5039141;28;20619;-70
2021/07/05 01:37:40;;;;;;;5.97;2.60;;;18.00;67.90;;;;;;5029271;28;20499;-70
2021/07/05 01:40:08;;;;;;;7.68;2.53;;;18.00;67.80;;;;;;5039406;28;20033;-70
2021/07/05 01:42:35;;;;;;;6.85;2.55;;;17.90;67.70;;;;;;5038819;28;20052;-70
2021/07/05 01:45:02;;;;;;;6.28;2.67;;;17.90;67.80;;;;;;5039268;28;20029;-70
2021/07/05 01:47:28;;;;;;;8.70;3.20;;;17.90;68.00;;;;;;5038828;28;20021;-70
2021/07/05 01:49:54;;;;;;;6.82;2.72;;;17.90;68.60;;;;;;5039042;28;20388;-70
2021/07/05 01:52:19;;;;;;;4.75;2.45;;;17.90;68.70;;;;;;5038841;28;20089;-70
2021/07/05 01:54:45;;;;;;;5.57;2.25;;;17.90;68.80;;;;;;5037745;28;20076;-69
2021/07/05 01:57:26;;;;;;;6.90;2.88;;;17.90;69.20;;;;;;5034137;28;20014;-69
2021/07/05 01:59:58;;;;;;;7.30;2.58;;;17.90;69.20;;;;;;5030001;28;20057;-69
2021/07/05 02:02:26;;;;;;;4.30;2.15;;;17.80;68.70;;;;;;5038490;28;20030;-70
2021/07/05 02:04:52;;;;;;;4.88;2.13;;;17.80;68.60;;;;;;5039149;28;20040;-70
2021/07/05 02:07:19;;;;;;;6.55;2.97;;;17.80;68.50;;;;;;5038397;28;20037;-70
2021/07/05 02:09:45;;;;;;;6.88;2.25;;;17.80;68.40;;;;;;5038696;28;20029;-70
2021/07/05 02:12:12;;;;;;;5.20;2.30;;;17.80;68.60;;;;;;5038712;28;20056;-70
2021/07/05 02:14:42;;;;;;;6.30;2.65;;;17.80;68.50;;;;;;5038259;28;20043;-70
2021/07/05 02:17:10;;;;;;;5.72;2.83;;;17.80;72.00;;;;;;5024659;28;20447;-70
2021/07/05 02:19:37;;;;;;;5.97;2.35;;;17.80;71.70;;;;;;5036937;28;20073;-70
2021/07/05 02:22:04;;;;;;;7.30;2.88;;;17.70;71.90;;;;;;5038093;28;20037;-70
2021/07/05 02:24:30;;;;;;;7.05;2.60;;;17.70;71.00;;;;;;5037910;28;20021;-70
2021/07/05 02:26:56;;;;;;;7.47;2.85;;;17.70;70.30;;;;;;5037968;28;20487;-70
2021/07/05 02:29:22;;;;;;;6.20;3.13;;;17.70;70.80;;;;;;5037730;28;20071;-70
2021/07/05 02:31:49;;;;;;;5.60;3.83;;;17.70;70.90;;;;;;5038145;28;20412;-70
2021/07/05 02:34:14;;;;;;;4.78;2.92;;;17.70;70.50;;;;;;5036042;28;20025;-70
2021/07/05 02:36:40;;;;;;;5.53;2.65;;;17.70;70.30;;;;;;5037544;28;20037;-70
2021/07/05 02:39:06;;;;;;;4.85;2.40;;;17.70;69.70;;;;;;5038048;28;20030;-70
2021/07/05 02:41:32;;;;;;;5.55;2.60;;;17.70;69.50;;;;;;5037455;28;20056;-70
2021/07/05 02:43:59;;;;;;;6.05;2.40;;;17.70;69.30;;;;;;5038189;28;20030;-69
2021/07/05 02:46:25;;;;;;;6.03;3.10;;;17.60;69.70;;;;;;5037927;28;20041;-69
2021/07/05 02:48:50;;;;;;;7.97;2.75;;;17.60;70.60;;;;;;5037711;28;20033;-70
2021/07/05 02:51:17;;;;;;;8.90;3.13;;;17.70;70.70;;;;;;5037778;28;20025;-69
2021/07/05 02:53:43;;;;;;;5.93;3.28;;;17.60;71.90;;;;;;5036881;28;20109;-70
2021/07/05 02:56:09;;;;;;;7.82;3.17;;;17.60;72.40;;;;;;5037239;28;20029;-70
2021/07/05 02:58:35;;;;;;;6.18;3.13;;;17.60;71.40;;;;;;5037600;28;20028;-70
2021/07/05 03:01:05;;;;;;;7.90;3.20;;;17.60;71.00;;;;;;5037221;28;20021;-70
2021/07/05 03:03:30;;;;;;;7.57;3.05;;;17.60;72.00;;;;;;5037569;28;20072;-69
2021/07/05 03:05:57;;;;;;;7.78;3.45;;;17.50;71.30;;;;;;5037283;28;20033;-69
2021/07/05 03:08:23;;;;;;;12.82;3.97;;;17.50;71.80;;;;;;5037521;28;20060;-70
2021/07/05 03:10:49;;;;;;;9.30;3.13;;;17.60;73.00;;;;;;5037448;28;20037;-70
2021/07/05 03:13:17;;;;;;;8.95;3.75;;;17.50;72.50;;;;;;5035459;28;20108;-69
2021/07/05 03:15:44;;;;;;;7.90;3.45;;;17.50;72.60;;;;;;5037077;28;20498;-70
2021/07/05 03:18:10;;;;;;;8.30;3.47;;;17.40;73.30;;;;;;5030640;28;20045;-69
2021/07/05 03:20:40;;;;;;;6.43;3.47;;;17.50;73.20;;;;;;5037825;28;20388;-70
2021/07/05 03:23:07;;;;;;;5.95;3.35;;;17.40;72.90;;;;;;5037137;28;20017;-70
2021/07/05 03:25:34;;;;;;;5.88;3.42;;;17.40;72.40;;;;;;5036766;28;20026;-70
2021/07/05 03:28:01;;;;;;;7.85;3.08;;;17.40;71.60;;;;;;5036898;28;20037;-70
2021/07/05 03:30:29;;;;;;;8.15;3.72;;;17.40;71.00;;;;;;5037114;28;20025;-70
2021/07/05 03:32:55;;;;;;;7.05;2.90;;;17.40;70.40;;;;;;5035940;28;20052;-70
2021/07/05 03:35:22;;;;;;;8.82;2.90;;;17.40;70.20;;;;;;5035962;28;20113;-70
2021/07/05 03:37:49;;;;;;;7.07;2.95;;;17.40;70.70;;;;;;5036928;28;20837;-70
2021/07/05 03:40:22;;;;;;;7.03;3.00;;;17.30;70.70;;;;;;5037460;28;20032;-70
2021/07/05 03:42:49;;;;;;;6.72;3.33;;;17.30;70.50;;;;;;5036920;28;20052;-70
2021/07/05 03:45:17;;;;;;;7.55;3.85;;;17.30;71.20;;;;;;5037124;28;20025;-70
2021/07/05 03:47:43;;;;;;;7.95;3.67;;;17.20;72.40;;;;;;5037196;28;20148;-70
2021/07/05 03:50:10;;;;;;;8.18;3.65;;;17.10;73.10;;;;;;5037077;28;20033;-69
2021/07/05 03:52:37;;;;;;;6.25;3.88;;;17.10;73.20;;;;;;5036890;28;20113;-70
2021/07/05 03:55:07;;;;;;;8.63;3.45;;;17.00;72.80;;;;;;5036081;28;20082;-70
2021/07/05 03:57:34;;;;;;;7.63;3.63;;;17.00;72.70;;;;;;5036977;28;20032;-70
2021/07/05 04:00:00;;;;;;;6.90;3.00;;;17.00;73.00;;;;;;5036764;28;20053;-70
2021/07/05 04:02:26;;;;;;;9.77;4.00;;;16.90;74.00;;;;;;5037088;28;20030;-70
2021/07/05 04:04:55;;;;;;;12.20;4.07;;;16.90;74.30;;;;;;5036743;28;20033;-70
2021/07/05 04:07:21;;;;;;;6.07;3.03;;;16.90;74.70;;;;;;5036916;28;20033;-70
2021/07/05 04:09:47;;;;;;;12.35;4.07;;;16.90;74.30;;;;;;5037001;28;20124;-69
2021/07/05 04:12:16;;;;;;;9.13;3.67;;;16.90;74.60;;;;;;5036687;28;20068;-70
2021/07/05 04:14:42;;;;;;;9.75;4.38;;;17.00;75.00;;;;;;5036737;28;20034;-69
2021/07/05 04:17:08;;;;;;;8.18;4.20;;;17.00;75.30;;;;;;5036221;28;20025;-69
2021/07/05 04:19:34;;;;;;;11.73;5.18;;;17.00;75.50;;;;;;5032817;28;20045;-69
2021/07/05 04:22:00;;;;;;;10.02;4.70;;;17.00;75.60;;;;;;5036486;28;20028;-69
2021/07/05 04:24:26;;;;;;;11.35;3.90;;;17.00;74.80;;;;;;5036624;28;20034;-69
2021/07/05 04:26:52;;;;;;;7.40;3.47;;;17.00;74.00;;;;;;5036344;28;20057;-70
2021/07/05 04:29:18;;;;;;;9.13;4.05;;;17.00;74.40;;;;;;5035985;28;20032;-70
2021/07/05 04:31:43;;;;;;;11.65;4.00;;;17.00;74.00;;;;;;5036639;28;20033;-70
2021/07/05 04:34:09;;;;;;;9.32;4.03;;;17.00;74.60;;;;;;5034069;28;20036;-70
2021/07/05 04:36:36;;;;;;;9.32;4.05;;;17.00;74.00;;;;;;5036055;28;20030;-70
2021/07/05 04:39:05;;;;;;;9.80;3.88;;;17.00;73.90;;;;;;5036532;28;20021;-70
2021/07/05 04:41:31;;;;;;;8.45;4.60;;;17.00;73.30;;;;;;5036578;28;20017;-70
2021/07/05 04:43:57;;;;;;;7.57;3.92;;;17.10;73.80;;;;;;5036555;28;20035;-70
2021/07/05 04:46:24;;;;;;;8.82;4.00;;;17.10;74.40;;;;;;5037608;28;20100;-70
2021/07/05 04:48:56;;;;;;;9.85;4.63;;;17.10;74.50;;;;;;5040278;28;20037;-70
2021/07/05 04:51:23;;;;;;;13.50;4.35;;;17.10;75.20;;;;;;5040233;28;20037;-70
2021/07/05 04:53:50;;;;;;;7.35;4.20;;;17.00;75.00;;;;;;5039809;28;20543;-70
2021/07/05 04:56:16;;;;;;;8.57;4.15;;;17.00;75.50;;;;;;5039871;28;20025;-69
2021/07/05 04:58:42;;;;;;;12.13;3.95;;;17.00;75.50;;;;;;5039115;28;20124;-70
2021/07/05 05:01:08;;;;;;;11.10;3.97;;;17.00;75.00;;;;;;5040142;28;20075;-69
2021/07/05 05:03:34;;;;;;;8.52;3.55;;;17.00;74.00;;;;;;5040008;28;20029;-70
2021/07/05 05:05:59;;;;;;;11.48;3.72;;;17.00;73.70;;;;;;5040046;28;20396;-69
2021/07/05 05:08:25;;;;;;;10.15;4.05;;;17.10;74.50;;;;;;5039684;28;20365;-70
2021/07/05 05:10:51;;;;;;;7.05;3.67;;;17.10;74.40;;;;;;5039925;28;20040;-70
2021/07/05 05:13:17;;;;;;;7.07;3.65;;;17.10;74.40;;;;;;5039203;28;20029;-70
2021/07/05 05:15:43;;;;;;;10.63;3.95;;;17.10;73.90;;;;;;5039861;28;20464;-69
2021/07/05 05:18:09;;;;;;;9.40;3.80;;;17.10;74.00;;;;;;5039076;28;20048;-69
2021/07/05 05:20:34;;;;;;;8.90;3.80;;;17.10;73.70;;;;;;5039717;28;20036;-70
2021/07/05 05:23:00;;;;;;;8.63;3.72;;;17.10;73.50;;;;;;5039508;28;20033;-69
2021/07/05 05:25:26;;;;;;;6.75;3.60;;;17.10;73.00;;;;;;5038937;28;20029;-70
2021/07/05 05:27:53;;;;;;;10.70;3.80;;;17.20;72.80;;;;;;5038688;28;20052;-70
2021/07/05 05:30:21;;;;;;;6.05;3.42;;;17.20;72.70;;;;;;5028631;28;20056;-70
2021/07/05 05:32:48;;;;;;;7.25;3.38;;;17.20;72.50;;;;;;5037695;28;20111;-70
2021/07/05 05:35:16;;;;;;;7.68;3.50;;;17.20;72.60;;;;;;5037187;28;20033;-70
2021/07/05 05:37:42;;;;;;;7.47;3.92;;;17.30;72.90;;;;;;5026026;28;20125;-70
2021/07/05 05:40:09;;;;;;;8.20;3.58;;;17.30;73.50;;;;;;5039651;28;20104;-69
2021/07/05 05:42:34;;;;;;;6.35;3.92;;;17.40;73.40;;;;;;5039300;28;20022;-70
2021/07/05 05:45:00;;;;;;;6.43;3.65;;;17.40;73.30;;;;;;5038674;28;20029;-69
2021/07/05 05:47:26;;;;;;;9.60;3.45;;;17.40;73.10;;;;;;5038987;28;20025;-70
2021/07/05 05:49:52;;;;;;;7.55;3.60;;;17.50;73.50;;;;;;5039119;28;20021;-70
2021/07/05 05:52:18;;;;;;;7.68;3.72;;;17.50;73.10;;;;;;5039031;28;20026;-70
2021/07/05 05:54:43;;;;;;;6.82;3.95;;;17.50;73.00;;;;;;5038160;28;20029;-70
2021/07/05 05:57:24;;;;;;;6.95;3.38;;;17.50;72.70;;;;;;5038099;28;20029;-70
2021/07/05 05:59:52;;;;;;;8.27;3.55;;;17.50;73.20;;;;;;5038334;28;20043;-70
2021/07/05 06:02:17;;;;;;;7.10;2.83;;;17.60;73.80;;;;;;5038754;28;20514;-70
2021/07/05 06:04:43;;;;;;;8.23;3.35;;;17.60;74.60;;;;;;5038757;28;20033;-69
2021/07/05 06:07:09;;;;;;;5.00;2.90;;;17.70;74.70;;;;;;5039157;28;20025;-70
2021/07/05 06:09:35;;;;;;;6.80;3.30;;;17.80;75.10;;;;;;5038512;28;20060;-70
2021/07/05 06:12:00;;;;;;;5.15;2.72;;;17.80;74.80;;;;;;5038801;28;20065;-70
2021/07/05 06:14:26;;;;;;;8.55;2.88;;;17.80;74.80;;;;;;5038239;28;20033;-69
2021/07/05 06:16:52;;;;;;;6.68;3.30;;;17.90;74.70;;;;;;5039107;28;20060;-70
2021/07/05 06:19:17;;;;;;;7.13;2.60;;;17.90;74.80;;;;;;5036106;28;20069;-70
2021/07/05 06:21:43;;;;;;;6.53;2.75;;;18.00;74.80;;;;;;5038786;28;20077;-70
2021/07/05 06:24:09;;;;;;;4.70;2.63;;;18.00;74.60;;;;;;5037958;28;20033;-70
2021/07/05 06:26:35;;;;;;;6.15;2.40;;;18.00;74.90;;;;;;5038635;28;20025;-70
2021/07/05 06:29:01;;;;;;;4.95;2.40;;;18.00;74.60;;;;;;5035947;28;20032;-70
2021/07/05 06:31:26;;;;;;;7.50;2.13;;;18.00;74.40;;;;;;5037875;28;20029;-69
2021/07/05 06:33:52;;;;;;;5.57;2.72;;;18.10;74.80;;;;;;5032479;28;20034;-69
2021/07/05 06:36:18;;;;;;;4.20;2.10;;;18.10;74.40;;;;;;5033125;28;20030;-69
2021/07/05 06:38:44;;;;;;;4.03;2.00;;;18.20;74.50;;;;;;5037032;28;20033;-70
2021/07/05 06:41:10;;;;;;;5.78;2.40;;;18.30;74.70;;;;;;5038235;28;20499;-71
2021/07/05 06:43:36;;;;;;;6.15;1.92;;;18.40;74.80;;;;;;5037636;28;20025;-72
2021/07/05 06:46:02;;;;;;;4.90;2.20;;;18.40;74.60;;;;;;5037687;28;20030;-73
2021/07/05 06:48:27;;;;;;;3.53;1.80;;;18.50;74.60;;;;;;5037399;28;20034;-72
2021/07/05 06:50:53;;;;;;;4.32;2.25;;;18.70;75.00;;;;;;5037899;28;20030;-71
2021/07/05 06:53:19;;;;;;;4.97;1.92;;;18.80;75.20;;;;;;5024188;28;20024;-71
2021/07/05 06:55:45;;;;;;;5.85;1.80;;;18.90;75.30;;;;;;5037067;28;20488;-71
2021/07/05 06:58:11;;;;;;;9.10;1.98;;;19.00;74.70;;;;;;5036580;28;20026;-73
2021/07/05 07:00:37;;;;;;;4.60;2.55;;;19.10;74.60;;;;;;5038296;28;20017;-72
2021/07/05 07:03:05;;;;;;;3.60;1.92;;;19.10;74.50;;;;;;5037288;28;20029;-73
2021/07/05 07:05:33;;;;;;;4.57;2.00;;;19.20;74.40;;;;;;5037062;28;20036;-69
2021/07/05 07:08:00;;;;;;;3.08;1.55;;;19.20;74.40;;;;;;5036630;28;20056;-71
2021/07/05 07:10:26;;;;;;;4.20;1.50;;;19.20;74.40;;;;;;5036253;28;20064;-72
2021/07/05 07:12:54;;;;;;;6.15;2.33;;;19.30;74.30;;;;;;5037296;28;20496;-69
2021/07/05 07:15:28;;;;;;;2.63;1.25;;;19.30;74.10;;;;;;5037036;28;20112;-70
2021/07/05 07:18:05;;;;;;;5.65;2.03;;;19.20;73.60;;;;;;5029360;28;20113;-70
2021/07/05 07:20:31;;;;;;;24.23;16.20;;;19.20;73.40;;;;;;5036254;28;20068;-70
2021/07/05 07:22:57;;;;;;;20.00;13.77;;;19.20;73.30;;;;;;5037945;28;20025;-70
2021/07/05 07:25:24;;;;;;;7.07;4.70;;;19.10;73.20;;;;;;5035790;28;20075;-71
2021/07/05 07:27:50;;;;;;;4.97;2.30;;;19.10;73.40;;;;;;5041754;28;20037;-71
2021/07/05 07:30:17;;;;;;;9.57;2.03;;;19.00;73.20;;;;;;5036195;28;20029;-71
2021/07/05 07:32:43;;;;;;;4.60;1.67;;;19.00;73.10;;;;;;5035095;28;20068;-72
2021/07/05 07:35:11;;;;;;;3.67;1.92;;;19.00;73.10;;;;;;5036169;28;20087;-72
2021/07/05 07:37:38;;;;;;;4.30;1.70;;;19.10;73.40;;;;;;5036492;28;20392;-71
2021/07/05 07:40:21;;;;;;;3.72;1.55;;;19.10;73.40;;;;;;5036750;28;20481;-71
2021/07/05 07:42:48;;;;;;;5.43;1.50;;;19.10;73.30;;;;;;5036858;28;20025;-72
2021/07/05 07:45:16;;;;;;;4.72;1.38;;;19.10;73.30;;;;;;5036579;28;20407;-72
2021/07/05 07:47:42;;;;;;;6.05;1.33;;;19.10;73.30;;;;;;5037452;28;20040;-72
2021/07/05 07:50:09;;;;;;;5.72;1.60;;;19.10;73.00;;;;;;5036122;28;20025;-73
2021/07/05 07:52:37;;;;;;;4.72;1.27;;;19.00;73.00;;;;;;5036958;28;20026;-70
2021/07/05 07:55:07;;;;;;;3.47;1.25;;;19.00;73.10;;;;;;5036511;28;20075;-70
2021/07/05 07:57:34;;;;;;;7.50;1.40;;;19.10;73.10;;;;;;5034485;28;20022;-70
2021/07/05 08:00:00;;;;;;;3.13;1.60;;;19.20;73.40;;;;;;5036886;28;20033;-70
2021/07/05 08:02:26;;;;;;;3.58;1.52;;;19.20;73.50;;;;;;5036576;28;20025;-70
2021/07/05 08:04:51;;;;;;;4.70;1.90;;;19.30;73.30;;;;;;5036185;28;20028;-70
2021/07/05 08:07:17;;;;;;;4.45;1.83;;;19.30;73.00;;;;;;5036179;28;20029;-70
2021/07/05 08:09:43;;;;;;;4.53;2.03;;;19.30;73.00;;;;;;5036065;28;20040;-70
2021/07/05 08:12:11;;;;;;;8.43;2.90;;;19.30;72.90;;;;;;5034670;28;20026;-70
2021/07/05 08:14:38;;;;;;;8.90;3.30;;;19.30;73.10;;;;;;5036441;28;20034;-69
2021/07/05 08:17:04;;;;;;;6.18;2.40;;;19.30;73.00;;;;;;5036802;28;20033;-70
2021/07/05 08:19:30;;;;;;;6.00;2.50;;;19.30;73.00;;;;;;5036124;28;20050;-70
2021/07/05 08:21:55;;;;;;;6.07;3.10;;;19.30;73.30;;;;;;5038433;28;20025;-70
2021/07/05 08:24:21;;;;;;;4.55;2.20;;;19.30;73.40;;;;;;5040708;28;20112;-70
2021/07/05 08:26:47;;;;;;;4.95;2.28;;;19.30;73.30;;;;;;5040496;28;20017;-70
2021/07/05 08:29:13;;;;;;;4.25;2.45;;;19.30;73.40;;;;;;5039637;28;20038;-69
2021/07/05 08:31:39;;;;;;;8.40;2.30;;;19.40;73.40;;;;;;5039315;28;20026;-70
2021/07/05 08:34:05;;;;;;;4.90;2.20;;;19.50;73.50;;;;;;5030100;28;20064;-68
2021/07/05 08:36:31;;;;;;;4.10;2.00;;;19.50;73.50;;;;;;5036452;28;20019;-68
2021/07/05 08:38:57;;;;;;;5.00;1.70;;;19.50;73.40;;;;;;5040575;28;20388;-67
2021/07/05 08:41:23;;;;;;;5.15;2.00;;;19.50;73.40;;;;;;5040172;28;20025;-68
2021/07/05 08:43:50;;;;;;;3.92;2.13;;;19.50;73.20;;;;;;5039038;28;20040;-68
2021/07/05 08:46:21;;;;;;;4.28;1.80;;;19.50;73.00;;;;;;5040561;28;20403;-68
2021/07/05 08:48:48;;;;;;;6.75;2.05;;;19.50;73.30;;;;;;5039423;28;20108;-67
2021/07/05 08:51:18;;;;;;;3.92;1.70;;;19.50;73.00;;;;;;5039450;28;20026;-66
2021/07/05 08:53:46;;;;;;;4.68;1.73;;;19.50;73.10;;;;;;5039605;28;20480;-67
2021/07/05 08:56:12;;;;;;;4.57;1.80;;;19.50;73.40;;;;;;5039759;28;20026;-67
2021/07/05 08:58:39;;;;;;;3.65;1.48;;;19.60;73.80;;;;;;5036397;28;20033;-66
2021/07/05 09:01:07;;;;;;;14.18;10.10;;;19.80;74.00;;;;;;5038828;28;20017;-67
2021/07/05 09:03:34;;;;;;;39.65;25.02;;;19.90;73.70;;;;;;5039127;28;20155;-66
2021/07/05 09:06:06;;;;;;;16.83;10.35;;;20.00;73.40;;;;;;5039697;28;20022;-66
2021/07/05 09:08:35;;;;;;;;;;;20.10;73.30;;;;;;5040491;28;20026;-67
2021/07/05 09:11:01;;;;;;;8.05;3.88;;;20.20;73.30;;;;;;5039308;28;19909;-69
2021/07/05 09:13:27;;;;;;;4.72;1.88;;;20.30;72.90;;;;;;5034891;28;20511;-68
2021/07/05 09:15:58;;;;;;;3.47;1.38;;;20.30;72.50;;;;;;5035197;28;20026;-69
2021/07/05 09:18:38;;;;;;;3.33;1.25;;;20.30;72.20;;;;;;5030708;28;20042;-67
2021/07/05 09:21:13;;;;;;;3.75;1.40;;;20.40;72.60;;;;;;5039705;28;20033;-67
2021/07/05 09:24:08;;;;;;;4.43;1.50;;;20.50;71.90;;;;;;5028261;28;20083;-67
2021/07/05 09:26:43;;;;;;;3.20;1.48;;;20.60;71.40;;;;;;5036912;28;20047;-70
2021/07/05 09:29:15;;;;;;;4.10;1.20;;;20.60;71.70;;;;;;5038456;28;20077;-66
2021/07/05 09:31:44;;;;;;;3.22;1.35;;;20.60;71.40;;;;;;5038675;28;20029;-66
2021/07/05 09:34:14;;;;;;;2.90;1.30;;;20.60;70.50;;;;;;5029126;28;20034;-66
2021/07/05 09:36:40;;;;;;;4.30;1.70;;;20.50;70.90;;;;;;5038700;28;20029;-66
2021/07/05 09:39:16;;;;;;;11.63;6.30;;;20.50;70.90;;;;;;5038697;28;20026;-69
2021/07/05 09:41:42;;;;;;;18.60;11.80;;;20.50;70.50;;;;;;5038033;28;20036;-66
2021/07/05 09:44:17;;;;;;;27.75;18.10;;;20.50;70.30;;;;;;5034792;28;20395;-66
2021/07/05 09:46:52;;;;;;;7.88;5.82;;;20.40;70.60;;;;;;5039690;28;21705;-66
2021/07/05 09:49:26;;;;;;;4.55;2.13;;;20.40;70.60;;;;;;5037989;28;20030;-67
2021/07/05 09:52:25;;;;;;;5.25;1.70;;;20.30;70.50;;;;;;5038164;28;20025;-66
2021/07/05 09:54:56;;;;;;;3.88;1.50;;;20.30;70.80;;;;;;5035861;28;20017;-65
2021/07/05 09:57:30;;;;;;;4.22;1.60;;;20.30;70.80;;;;;;5036654;28;20025;-69
2021/07/05 10:00:05;;;;;;;4.40;1.55;;;20.30;71.00;;;;;;5037104;28;20061;-66
2021/07/05 10:02:30;;;;;;;16.20;10.55;;;20.30;70.70;;;;;;5037175;28;20109;-65
2021/07/05 10:05:08;;;;;;;11.50;8.32;;;20.30;70.80;;;;;;5040464;28;20091;-66
2021/07/05 10:07:34;;;;;;;8.60;5.65;;;20.30;70.90;;;;;;5033621;28;20599;-66
2021/07/05 10:10:11;;;;;;;5.97;2.95;;;20.30;70.70;;;;;;5035322;28;20021;-66
2021/07/05 10:12:36;;;;;;;4.78;2.10;;;20.20;70.20;;;;;;5037308;28;20424;-67
2021/07/05 10:15:10;;;;;;;5.95;2.10;;;20.20;70.20;;;;;;5036472;28;20075;-68
2021/07/05 10:17:42;;;;;;;4.70;2.30;;;20.20;70.40;;;;;;5037366;28;20481;-69
2021/07/05 10:20:11;;;;;;;5.03;2.00;;;20.20;70.30;;;;;;5037546;28;20044;-66
2021/07/05 10:22:46;;;;;;;6.70;2.78;;;20.20;70.60;;;;;;5036951;28;20155;-66
2021/07/05 10:25:12;;;;;;;6.93;2.95;;;20.20;70.30;;;;;;5037221;28;20033;-67
2021/07/05 10:27:39;;;;;;;7.30;2.50;;;20.10;70.10;;;;;;5038026;28;20064;-67
2021/07/05 10:30:08;;;;;;;6.68;2.60;;;20.10;69.70;;;;;;5037782;28;20025;-66
2021/07/05 10:32:35;;;;;;;5.38;2.50;;;20.10;69.60;;;;;;5037768;28;20037;-67
2021/07/05 10:35:01;;;;;;;8.77;2.75;;;20.00;69.10;;;;;;5032571;28;20033;-69
2021/07/05 10:37:33;;;;;;;5.55;2.95;;;20.00;69.40;;;;;;5037539;28;20025;-69
2021/07/05 10:40:00;;;;;;;;;;;20.00;69.80;;;;;;5036822;28;20036;-70
2021/07/05 10:42:44;;;;;;;7.47;3.00;;;20.00;68.80;;;;;;5037038;28;19909;-71
2021/07/05 10:45:17;;;;;;;5.47;2.75;;;20.00;68.70;;;;;;5034883;28;20040;-70
2021/07/05 10:47:50;;;;;;;8.07;3.75;;;20.00;68.80;;;;;;5033846;28;20022;-68
2021/07/05 10:50:36;;;;;;;;;;;19.90;68.70;;;;;;5036471;28;20033;-69
2021/07/05 10:53:02;;;;;;;6.60;3.33;;;19.90;69.00;;;;;;5036429;28;19909;-69
2021/07/05 10:55:54;;;;;;;7.45;3.35;;;19.90;69.40;;;;;;5037229;28;20032;-70
2021/07/05 10:58:46;;;;;;;9.20;3.35;;;19.90;69.60;;;;;;5035126;28;20046;-70
2021/07/05 11:01:16;;;;;;;8.10;3.53;;;20.00;69.80;;;;;;5035939;28;20109;-69
2021/07/05 11:03:41;;;;;;;10.10;5.65;;;20.00;69.30;;;;;;5037714;28;20108;-67
2021/07/05 11:06:15;;;;;;;16.75;9.27;;;20.00;69.10;;;;;;5037625;28;20049;-69
2021/07/05 11:08:52;;;;;;;7.28;3.65;;;20.00;67.80;;;;;;5037478;28;20025;-69
2021/07/05 11:11:25;;;;;;;8.82;3.67;;;20.00;68.30;;;;;;5037365;28;20028;-69
2021/07/05 11:14:09;;;;;;;;;;;20.00;68.30;;;;;;5037878;28;20037;-68
2021/07/05 11:17:14;;;;;;;11.00;6.25;;;20.00;68.90;;;;;;5029410;28;19963;-68
2021/07/05 11:20:12;;;;;;;11.80;6.05;;;19.90;68.90;;;;;;5051048;28;20091;-69
2021/07/05 11:22:51;;;;;;;11.23;5.32;;;20.00;68.30;;;;;;5035161;28;20108;-70
2021/07/05 11:25:20;;;;;;;10.50;4.40;;;20.00;68.70;;;;;;5036296;28;20051;-70
2021/07/05 11:27:51;;;;;;;9.93;3.97;;;20.00;69.00;;;;;;5034663;28;20037;-68
2021/07/05 11:30:25;;;;;;;7.07;3.77;;;19.90;69.20;;;;;;5034058;28;20439;-69
2021/07/05 11:33:20;;;;;;;11.18;4.30;;;20.00;69.40;;;;;;5034939;28;20393;-68
2021/07/05 11:36:00;;;;;;;7.38;3.63;;;20.00;69.60;;;;;;5030994;28;20021;-69
2021/07/05 11:38:36;;;;;;;7.40;3.58;;;19.90;69.00;;;;;;5035754;28;20024;-72
2021/07/05 11:41:06;;;;;;;6.32;4.20;;;19.90;68.70;;;;;;5035626;28;20141;-68
2021/07/05 11:43:45;;;;;;;9.68;4.18;;;19.90;69.10;;;;;;5035955;28;20028;-71
2021/07/05 11:46:38;;;;;;;9.15;4.03;;;20.00;69.30;;;;;;5023967;28;20048;-71
2021/07/05 11:49:14;;;;;;;10.73;4.43;;;20.00;69.50;;;;;;5036561;28;20052;-72
2021/07/05 11:51:49;;;;;;;9.73;3.83;;;20.00;69.70;;;;;;5035231;28;20030;-70
2021/07/05 11:54:20;;;;;;;7.30;4.30;;;20.00;69.80;;;;;;5024005;28;20029;-71
2021/07/05 11:56:52;;;;;;;7.63;4.28;;;20.10;68.80;;;;;;5038985;28;20018;-72
2021/07/05 11:59:27;;;;;;;9.02;4.50;;;20.10;68.70;;;;;;5040010;28;20481;-71
2021/07/05 12:02:06;;;;;;;10.32;4.30;;;20.10;69.20;;;;;;5040798;28;20052;-77
2021/07/05 12:04:38;;;;;;;9.05;4.20;;;20.10;69.60;;;;;;5040377;28;20516;-71
2021/07/05 12:07:10;;;;;;;;;;;20.20;69.50;;;;;;5037601;28;20034;-76
2021/07/05 12:09:37;;;;;;;9.65;4.55;;;20.20;69.40;;;;;;5033214;28;19931;-69
2021/07/05 12:12:13;;;;;;;15.10;6.30;;;20.20;69.00;;;;;;5040241;28;20034;-75
2021/07/05 12:14:40;;;;;;;11.88;6.15;;;20.20;68.60;;;;;;5039024;28;20029;-70
2021/07/05 12:17:06;;;;;;;19.77;11.80;;;20.20;68.30;;;;;;5040058;28;20027;-72
2021/07/05 12:19:34;;;;;;;13.73;6.97;;;20.20;68.10;;;;;;5032242;28;20054;-73
2021/07/05 12:22:03;;;;;;;8.98;4.63;;;20.20;67.00;;;;;;5034701;28;20025;-72
2021/07/05 12:24:33;;;;;;;9.60;3.85;;;20.10;67.30;;;;;;5040552;28;20029;-72
2021/07/05 12:27:10;;;;;;;8.73;3.85;;;20.10;67.60;;;;;;5040601;28;20484;-72
2021/07/05 12:29:57;;;;;;;7.15;3.33;;;20.10;67.30;;;;;;5040573;28;20385;-72
2021/07/05 12:32:31;;;;;;;5.70;3.20;;;20.00;66.80;;;;;;5040760;28;20022;-72
2021/07/05 12:35:02;;;;;;;7.35;3.67;;;19.90;67.50;;;;;;5034497;28;20029;-72
2021/07/05 12:37:48;;;;;;;12.70;6.33;;;19.90;66.70;;;;;;5036268;28;20236;-72
2021/07/05 12:40:20;;;;;;;22.77;11.90;;;19.90;67.20;;;;;;5040502;28;20028;-72
2021/07/05 12:42:48;;;;;;;20.02;11.73;;;19.90;67.30;;;;;;5040228;28;20048;-72
2021/07/05 12:45:15;;;;;;;19.17;9.07;;;19.90;67.60;;;;;;5040478;28;20060;-72
2021/07/05 12:47:50;;;;;;;17.35;8.63;;;19.80;67.80;;;;;;5040545;28;20388;-71
2021/07/05 12:50:18;;;;;;;15.05;6.90;;;19.90;68.00;;;;;;5027538;28;20036;-72
2021/07/05 12:53:24;;;;;;;14.15;7.53;;;19.90;68.40;;;;;;5039188;28;20089;-72